Airport View

Enter AWOS ICAO identifier for current METAR.

ex. KFNL

KLHB 210035Z AUTO 13009G14KT 10SM SCT032 SCT041 28/22 A2997 RMK AO2 T02790223

21 Sep 2019 00:56

Frequency: 118.675

Phone: 979-280-5596

Other Area AWOS: KCFD - KT35 - KCLL - KRWV

TAF KCLL 202322Z 2100/2124 13013KT P6SM SCT030 SCT250 FM210800 14008KT P6SM SCT025 FM211400 13012KT P6SM SCT015 BKN025 FM211600 15013KT P6SM SCT025 BKN035 FM211900 15014KT P6SM SCT050 PROB30 2120/2124 SHRA